createdAt,value
2018-09-02T00:00:35.380Z,71.82
2018-09-02T00:03:05.934Z,72.31
2018-09-02T00:05:35.547Z,73.12
2018-09-02T00:08:05.147Z,73.70
2018-09-02T00:10:35.020Z,73.94
2018-09-02T00:13:04.618Z,73.86
2018-09-02T00:15:34.211Z,74.94
2018-09-02T00:18:03.820Z,75.07
2018-09-02T00:20:33.434Z,74.86
2018-09-02T00:23:03.003Z,75.16
2018-09-02T00:25:32.591Z,75.86
2018-09-02T00:28:02.423Z,75.53
2018-09-02T00:30:32.032Z,75.54
2018-09-02T00:33:01.787Z,76.16
2018-09-02T00:35:31.426Z,76.01
2018-09-02T00:38:01.064Z,76.55
2018-09-02T00:40:30.789Z,76.72
2018-09-02T00:43:00.429Z,76.64
2018-09-02T00:45:30.062Z,76.65
2018-09-02T00:47:59.666Z,76.89
2018-09-02T00:50:29.262Z,76.71
2018-09-02T00:52:58.863Z,76.66
2018-09-02T00:55:28.486Z,77.43
2018-09-02T00:57:58.114Z,77.41
2018-09-02T01:00:27.779Z,77.06
2018-09-02T01:02:57.410Z,77.48
2018-09-02T01:05:27.301Z,77.92
2018-09-02T01:07:57.893Z,78.48
2018-09-02T01:10:27.957Z,77.94
2018-09-02T01:12:57.527Z,78.18
2018-09-02T01:15:31.868Z,78.51
2018-09-02T01:18:01.295Z,79.34
2018-09-02T01:20:30.739Z,79.64
2018-09-02T01:23:00.294Z,79.79
2018-09-02T01:25:29.625Z,80.33
2018-09-02T01:27:59.027Z,79.97
2018-09-02T01:30:28.431Z,80.05
2018-09-02T01:32:57.924Z,80.38
2018-09-02T01:35:34.447Z,81.03
2018-09-02T01:38:05.935Z,81.40
2018-09-02T01:40:36.152Z,81.09
2018-09-02T01:43:05.828Z,82.00
2018-09-02T01:45:35.234Z,82.23
2018-09-02T01:48:04.651Z,82.26
2018-09-02T01:50:34.054Z,82.28
2018-09-02T01:53:03.739Z,82.41
2018-09-02T01:55:33.143Z,82.09
2018-09-02T01:58:02.540Z,83.04
2018-09-02T02:00:31.962Z,82.45
2018-09-02T02:03:01.364Z,83.12
2018-09-02T02:05:30.745Z,83.48
2018-09-02T02:08:00.215Z,83.61
2018-09-02T02:10:29.635Z,83.10
2018-09-02T02:12:59.128Z,83.22
2018-09-02T02:15:28.508Z,83.20
2018-09-02T02:17:58.071Z,83.77
2018-09-02T02:20:27.476Z,83.37
2018-09-02T02:22:56.868Z,83.54
2018-09-02T02:25:26.271Z,83.87
2018-09-02T02:27:55.718Z,83.45
2018-09-02T02:30:25.110Z,82.89
2018-09-02T02:32:54.550Z,82.61
2018-09-02T02:35:23.962Z,83.31
2018-09-02T02:37:53.416Z,82.95
2018-09-02T02:40:22.847Z,82.31
2018-09-02T02:42:52.303Z,82.58
2018-09-02T02:45:21.721Z,82.57
2018-09-02T02:47:51.121Z,82.50
2018-09-02T02:50:20.573Z,82.19
2018-09-02T02:52:56.177Z,82.18
2018-09-02T02:55:25.615Z,82.31
2018-09-02T02:57:55.015Z,82.06
2018-09-02T03:00:24.452Z,82.61
2018-09-02T03:02:53.840Z,83.10
2018-09-02T03:05:23.309Z,82.75
2018-09-02T03:07:52.777Z,82.53
2018-09-02T03:10:22.213Z,82.59
2018-09-02T03:12:51.595Z,82.91
2018-09-02T03:15:21.032Z,83.51
2018-09-02T03:17:50.427Z,83.39
2018-09-02T03:20:19.835Z,83.49
2018-09-02T03:22:49.519Z,83.76
2018-09-02T03:25:19.608Z,83.11
2018-09-02T03:27:49.029Z,83.68
2018-09-02T03:30:18.453Z,83.66
2018-09-02T03:32:47.920Z,83.82
2018-09-02T03:35:17.344Z,83.54
2018-09-02T03:37:46.760Z,83.84
2018-09-02T03:40:16.191Z,84.50
2018-09-02T03:42:45.612Z,84.52
2018-09-02T03:45:15.024Z,84.66
2018-09-02T03:47:44.435Z,84.66
2018-09-02T03:50:13.840Z,84.35
2018-09-02T03:52:43.345Z,84.66
2018-09-02T03:55:12.756Z,84.40
2018-09-02T03:57:42.196Z,84.58
2018-09-02T04:00:11.617Z,84.69
2018-09-02T04:02:41.581Z,85.24
2018-09-02T04:05:11.013Z,85.05
2018-09-02T04:07:40.539Z,85.42
2018-09-02T04:10:09.969Z,86.20
2018-09-02T04:12:39.360Z,85.69
2018-09-02T04:15:08.914Z,86.17
2018-09-02T04:17:38.872Z,86.64
2018-09-02T04:20:08.538Z,87.05
2018-09-02T04:22:37.957Z,87.05
2018-09-02T04:25:07.384Z,87.27
2018-09-02T04:27:36.872Z,86.98
2018-09-02T04:30:06.373Z,87.31
2018-09-02T04:32:35.771Z,87.14
2018-09-02T04:35:05.245Z,87.84
2018-09-02T04:37:34.676Z,87.61
2018-09-02T04:40:04.240Z,87.72
2018-09-02T04:42:33.684Z,87.75
2018-09-02T04:45:03.938Z,87.68
2018-09-02T04:47:33.402Z,87.58
2018-09-02T04:50:15.325Z,87.69
2018-09-02T04:52:44.740Z,87.22
2018-09-02T04:55:14.241Z,87.11
2018-09-02T04:57:44.652Z,87.12
2018-09-02T05:00:14.183Z,87.08
2018-09-02T05:02:43.543Z,86.68
2018-09-02T05:05:13.152Z,86.64
2018-09-02T05:07:42.548Z,87.16
2018-09-02T05:10:11.988Z,86.26
2018-09-02T05:12:41.448Z,86.87
2018-09-02T05:15:10.890Z,86.08
2018-09-02T05:17:40.579Z,86.31
2018-09-02T05:20:10.009Z,85.49
2018-09-02T05:22:39.471Z,85.84
2018-09-02T05:25:08.906Z,84.89
2018-09-02T05:27:45.033Z,85.60
2018-09-02T05:30:14.497Z,85.26
2018-09-02T05:32:43.917Z,85.31
2018-09-02T05:35:13.405Z,85.78
2018-09-02T05:37:43.013Z,85.08
2018-09-02T05:40:12.457Z,85.55
2018-09-02T05:42:41.997Z,85.81
2018-09-02T05:45:11.445Z,86.17
2018-09-02T05:47:40.879Z,85.28
2018-09-02T05:50:10.299Z,85.39
2018-09-02T05:52:39.939Z,85.95
2018-09-02T05:55:09.474Z,85.57
2018-09-02T05:57:38.958Z,85.89
2018-09-02T06:00:08.457Z,85.56
2018-09-02T06:02:38.002Z,85.66
2018-09-02T06:05:07.504Z,85.37
2018-09-02T06:07:36.936Z,86.20
2018-09-02T06:10:06.724Z,85.87
2018-09-02T06:12:36.142Z,86.16
2018-09-02T06:15:05.725Z,85.55
2018-09-02T06:17:35.228Z,85.87
2018-09-02T06:20:04.758Z,85.56
2018-09-02T06:22:34.167Z,86.11
2018-09-02T06:25:03.568Z,85.38
2018-09-02T06:27:33.033Z,85.79
2018-09-02T06:30:02.794Z,86.08
2018-09-02T06:32:32.168Z,85.91
2018-09-02T06:35:01.704Z,85.09
2018-09-02T06:37:31.096Z,85.24
2018-09-02T06:40:00.552Z,85.61
2018-09-02T06:42:30.032Z,84.91
2018-09-02T06:44:59.432Z,84.77
2018-09-02T06:47:28.840Z,84.35
2018-09-02T06:50:01.209Z,83.83
2018-09-02T06:52:30.655Z,83.29
2018-09-02T06:55:00.170Z,83.67
2018-09-02T06:57:29.563Z,83.47
2018-09-02T06:59:59.159Z,82.64
2018-09-02T07:02:28.600Z,83.17
2018-09-02T07:04:58.086Z,83.41
2018-09-02T07:07:27.617Z,83.08
2018-09-02T07:09:57.054Z,82.93
2018-09-02T07:12:26.469Z,82.28
2018-09-02T07:14:56.164Z,82.44
2018-09-02T07:17:25.606Z,81.44
2018-09-02T07:19:55.055Z,82.03
2018-09-02T07:22:24.466Z,82.03
2018-09-02T07:24:53.960Z,82.33
2018-09-02T07:27:23.393Z,81.65
2018-09-02T07:29:52.803Z,81.68
2018-09-02T07:32:22.384Z,81.26
2018-09-02T07:34:51.869Z,80.84
2018-09-02T07:37:21.294Z,80.01
2018-09-02T07:39:50.778Z,79.37
2018-09-02T07:42:20.235Z,80.21
2018-09-02T07:44:49.747Z,79.10
2018-09-02T07:47:19.303Z,79.80
2018-09-02T07:49:48.744Z,79.23
2018-09-02T07:52:18.284Z,79.81
2018-09-02T07:54:48.215Z,79.26
2018-09-02T07:57:17.715Z,79.01
2018-09-02T07:59:47.112Z,78.75
2018-09-02T08:02:16.828Z,78.33
2018-09-02T08:04:46.333Z,78.26
2018-09-02T08:07:15.744Z,77.77
2018-09-02T08:09:45.179Z,77.52
2018-09-02T08:12:14.573Z,77.13
2018-09-02T08:14:44.009Z,77.59
2018-09-02T08:17:13.582Z,77.21
2018-09-02T08:19:43.008Z,77.74
2018-09-02T08:22:12.423Z,77.68
2018-09-02T08:24:41.983Z,77.78
2018-09-02T08:27:11.436Z,77.40
2018-09-02T08:29:40.836Z,77.86
2018-09-02T08:32:10.320Z,77.65
2018-09-02T08:34:39.711Z,77.52
2018-09-02T08:37:09.101Z,77.15
2018-09-02T08:39:38.542Z,77.30
2018-09-02T08:42:07.948Z,77.52
2018-09-02T08:44:37.363Z,77.00
2018-09-02T08:47:06.756Z,77.55
2018-09-02T08:49:36.190Z,77.16
2018-09-02T08:52:05.804Z,76.69
2018-09-02T08:54:35.299Z,77.46
2018-09-02T08:57:04.708Z,76.63
2018-09-02T08:59:34.243Z,76.48
2018-09-02T09:02:03.685Z,76.53
2018-09-02T09:04:33.118Z,76.93
2018-09-02T09:07:02.500Z,76.03
2018-09-02T09:09:32.058Z,76.33
2018-09-02T09:12:01.436Z,75.71
2018-09-02T09:14:30.934Z,75.72
2018-09-02T09:17:00.427Z,74.92
2018-09-02T09:19:30.150Z,75.19
2018-09-02T09:21:59.632Z,74.72
2018-09-02T09:24:29.298Z,74.13
2018-09-02T09:26:58.772Z,74.62
2018-09-02T09:29:28.099Z,73.46
2018-09-02T09:31:57.520Z,73.07
2018-09-02T09:34:26.917Z,73.40
2018-09-02T09:36:56.496Z,72.88
2018-09-02T09:39:26.105Z,73.12
2018-09-02T09:41:55.526Z,73.84
2018-09-02T09:44:24.963Z,74.31
2018-09-02T09:46:54.401Z,73.99
2018-09-02T09:49:23.847Z,73.69
2018-09-02T09:51:53.279Z,73.66
2018-09-02T09:54:22.814Z,73.93
2018-09-02T09:56:52.213Z,73.69
2018-09-02T09:59:21.588Z,73.25
2018-09-02T10:01:51.027Z,73.85
2018-09-02T10:04:20.435Z,74.21
2018-09-02T10:06:49.808Z,74.33
2018-09-02T10:09:19.471Z,76.03
2018-09-02T10:11:48.913Z,77.38
2018-09-02T10:14:18.451Z,78.88
2018-09-02T10:16:47.880Z,80.57
2018-09-02T10:19:17.323Z,81.05
2018-09-02T10:21:46.803Z,81.30
2018-09-02T10:24:16.291Z,81.55
2018-09-02T10:26:45.757Z,81.82
2018-09-02T10:29:15.160Z,81.92
2018-09-02T10:31:44.589Z,81.60
2018-09-02T10:34:14.009Z,82.50
2018-09-02T10:36:43.455Z,81.21
2018-09-02T10:39:12.881Z,81.49
2018-09-02T10:41:42.319Z,81.16
2018-09-02T10:44:11.796Z,81.48
2018-09-02T10:46:41.348Z,81.13
2018-09-02T10:49:10.782Z,81.37
2018-09-02T10:51:40.181Z,81.03
2018-09-02T10:54:09.903Z,81.07
2018-09-02T10:56:39.371Z,79.88
2018-09-02T10:59:08.780Z,80.40
2018-09-02T11:01:38.222Z,79.33
2018-09-02T11:04:08.055Z,78.74
2018-09-02T11:06:37.490Z,77.62
2018-09-02T11:09:10.351Z,77.31
2018-09-02T11:11:40.081Z,76.55
2018-09-02T11:14:10.231Z,75.68
2018-09-02T11:16:39.754Z,74.99
2018-09-02T11:19:09.377Z,74.74
2018-09-02T11:21:38.786Z,74.04
2018-09-02T11:24:08.524Z,72.84
2018-09-02T11:26:37.915Z,73.02
2018-09-02T11:29:07.361Z,72.37
2018-09-02T11:31:36.936Z,71.87
2018-09-02T11:34:06.475Z,71.78
2018-09-02T11:36:35.796Z,70.89
2018-09-02T11:39:08.064Z,70.58
2018-09-02T11:41:37.530Z,69.85
2018-09-02T11:44:07.216Z,68.63
2018-09-02T11:46:36.637Z,68.21
2018-09-02T11:49:06.688Z,67.34
2018-09-02T11:51:36.135Z,66.66
2018-09-02T11:54:05.812Z,65.65
2018-09-02T11:56:35.239Z,64.57
2018-09-02T11:59:04.757Z,63.85
2018-09-02T12:01:34.396Z,63.24
2018-09-02T12:04:03.900Z,62.85
2018-09-02T12:06:33.305Z,62.56
2018-09-02T12:09:02.930Z,61.51
2018-09-02T12:11:32.322Z,61.84
2018-09-02T12:14:01.945Z,60.99
2018-09-02T12:16:31.479Z,61.41
2018-09-02T12:19:00.919Z,60.99
2018-09-02T12:21:30.432Z,61.20
2018-09-02T12:23:59.948Z,61.69
2018-09-02T12:26:29.362Z,61.90
2018-09-02T12:28:58.751Z,62.00
2018-09-02T12:31:28.182Z,61.12
2018-09-02T12:33:57.653Z,61.38
2018-09-02T12:36:27.099Z,61.25
2018-09-02T12:38:56.540Z,60.19
2018-09-02T12:41:25.944Z,59.45
2018-09-02T12:43:55.428Z,58.44
2018-09-02T12:46:24.887Z,57.44
2018-09-02T12:48:54.286Z,57.61
2018-09-02T12:51:23.715Z,57.43
2018-09-02T12:53:53.304Z,56.67
2018-09-02T12:56:22.753Z,56.23
2018-09-02T12:58:52.195Z,55.97
2018-09-02T13:01:21.687Z,57.07
2018-09-02T13:03:51.036Z,56.73
2018-09-02T13:06:20.460Z,56.83
2018-09-02T13:08:50.445Z,57.50
2018-09-02T13:11:19.835Z,56.92
2018-09-02T13:13:49.270Z,57.33
2018-09-02T13:16:18.684Z,56.84
2018-09-02T13:18:48.071Z,57.20
2018-09-02T13:21:17.475Z,56.79
2018-09-02T13:23:46.949Z,55.86
2018-09-02T13:26:16.364Z,56.47
2018-09-02T13:28:45.768Z,56.06
2018-09-02T13:31:15.189Z,56.08
2018-09-02T13:33:44.759Z,55.49
2018-09-02T13:36:14.142Z,55.71
2018-09-02T13:38:43.658Z,55.44
2018-09-02T13:41:15.988Z,55.41
2018-09-02T13:43:45.450Z,56.08
2018-09-02T13:46:14.867Z,55.52
2018-09-02T13:48:44.511Z,55.52
2018-09-02T13:51:13.940Z,55.34
2018-09-02T13:53:43.514Z,55.49
2018-09-02T13:56:13.064Z,55.71
2018-09-02T13:58:43.050Z,54.70
2018-09-02T14:01:12.686Z,54.40
2018-09-02T14:03:43.974Z,55.03
2018-09-02T14:06:14.169Z,54.95
2018-09-02T14:08:44.915Z,54.32
2018-09-02T14:11:16.076Z,53.92
2018-09-02T14:13:46.222Z,53.98
2018-09-02T14:16:15.752Z,54.56
2018-09-02T14:18:45.237Z,53.69
2018-09-02T14:21:14.679Z,54.25
2018-09-02T14:23:44.099Z,54.07
2018-09-02T14:26:13.527Z,54.00
2018-09-02T14:28:43.033Z,53.61
2018-09-02T14:31:12.566Z,53.05
2018-09-02T14:33:41.971Z,53.32
2018-09-02T14:36:11.430Z,53.31
2018-09-02T14:38:40.823Z,52.72
2018-09-02T14:41:10.264Z,52.67
2018-09-02T14:43:39.851Z,53.61
2018-09-02T14:46:09.793Z,53.06
2018-09-02T14:48:39.247Z,53.18
2018-09-02T14:51:08.684Z,53.01
2018-09-02T14:53:38.090Z,52.17
2018-09-02T14:56:07.825Z,53.08
2018-09-02T14:58:37.410Z,52.92
2018-09-02T15:01:07.049Z,51.98
2018-09-02T15:03:36.471Z,52.76
2018-09-02T15:06:05.931Z,53.40
2018-09-02T15:08:35.332Z,52.44
2018-09-02T15:11:04.740Z,52.47
2018-09-02T15:13:34.320Z,52.83
2018-09-02T15:16:03.803Z,53.30
2018-09-02T15:18:33.450Z,52.66
2018-09-02T15:21:02.996Z,52.94
2018-09-02T15:23:32.388Z,53.59
2018-09-02T15:26:01.835Z,53.09
2018-09-02T15:28:31.559Z,53.56
2018-09-02T15:31:00.985Z,53.44
2018-09-02T15:33:30.487Z,53.90
2018-09-02T15:35:59.952Z,53.11
2018-09-02T15:38:29.392Z,53.44
2018-09-02T15:40:58.897Z,53.41
2018-09-02T15:43:28.301Z,54.21
2018-09-02T15:45:57.724Z,54.22
2018-09-02T15:48:27.105Z,54.62
2018-09-02T15:50:56.622Z,54.42
2018-09-02T15:53:26.036Z,54.97
2018-09-02T15:55:55.779Z,54.17
2018-09-02T15:58:25.216Z,55.12
2018-09-02T16:00:54.791Z,54.94
2018-09-02T16:03:24.243Z,54.85
2018-09-02T16:05:53.710Z,55.53
2018-09-02T16:08:29.643Z,55.37
2018-09-02T16:10:59.069Z,55.26
2018-09-02T16:13:28.508Z,55.47
2018-09-02T16:15:57.923Z,54.96
2018-09-02T16:18:27.427Z,54.83
2018-09-02T16:20:56.832Z,54.99
2018-09-02T16:23:26.332Z,55.87
2018-09-02T16:25:55.771Z,55.99
2018-09-02T16:28:25.194Z,55.19
2018-09-02T16:30:54.653Z,55.29
2018-09-02T16:33:25.736Z,55.68
2018-09-02T16:35:55.375Z,55.65
2018-09-02T16:38:24.755Z,56.03
2018-09-02T16:40:55.968Z,55.95
2018-09-02T16:43:25.367Z,55.60
2018-09-02T16:45:55.554Z,56.18
2018-09-02T16:48:25.532Z,55.49
2018-09-02T16:50:55.327Z,56.38
2018-09-02T16:53:24.760Z,56.32
2018-09-02T16:55:54.172Z,55.97
2018-09-02T16:58:24.432Z,55.94
2018-09-02T17:00:53.885Z,56.69
2018-09-02T17:04:28.225Z,56.99
2018-09-02T17:06:57.634Z,56.37
2018-09-02T17:09:27.288Z,56.56
2018-09-02T17:11:56.864Z,56.81
2018-09-02T17:14:26.299Z,57.72
2018-09-02T17:16:55.700Z,57.47
2018-09-02T17:19:27.538Z,57.62
2018-09-02T17:21:57.020Z,58.00
2018-09-02T17:24:26.586Z,57.95
2018-09-02T17:26:56.073Z,57.80
2018-09-02T17:29:25.563Z,57.44
2018-09-02T17:31:55.025Z,57.22
2018-09-02T17:34:24.481Z,57.99
2018-09-02T17:36:53.917Z,57.95
2018-09-02T17:39:23.444Z,58.12
2018-09-02T17:41:52.892Z,57.70
2018-09-02T17:44:22.382Z,58.33
2018-09-02T17:46:51.793Z,58.58
2018-09-02T17:49:21.372Z,58.49
2018-09-02T17:51:50.838Z,58.32
2018-09-02T17:54:20.295Z,58.50
2018-09-02T17:56:49.784Z,58.59
2018-09-02T17:59:19.223Z,57.91
2018-09-02T18:01:49.329Z,58.26
2018-09-02T18:04:18.909Z,57.93
2018-09-02T18:06:48.524Z,58.27
2018-09-02T18:10:47.170Z,58.18
2018-09-02T18:13:16.628Z,58.05
2018-09-02T18:15:46.115Z,58.55
2018-09-02T18:18:15.485Z,58.96
2018-09-02T18:20:44.957Z,59.08
2018-09-02T18:23:14.368Z,59.08
2018-09-02T18:25:43.895Z,58.58
2018-09-02T18:28:16.318Z,58.49
2018-09-02T18:30:45.747Z,58.70
2018-09-02T18:33:15.156Z,59.46
2018-09-02T18:35:44.628Z,59.64
2018-09-02T18:38:14.110Z,58.71
2018-09-02T18:40:43.536Z,58.72
2018-09-02T18:43:12.965Z,58.81
2018-09-02T18:45:42.471Z,58.75
2018-09-02T18:48:11.940Z,58.95
2018-09-02T18:50:41.385Z,58.88
2018-09-02T18:53:10.862Z,59.96
2018-09-02T18:55:40.505Z,59.62
2018-09-02T18:58:10.049Z,59.65
2018-09-02T19:00:39.513Z,59.59
2018-09-02T19:03:09.571Z,59.66
2018-09-02T19:05:39.213Z,59.40
2018-09-02T19:08:08.635Z,60.24
2018-09-02T19:10:38.534Z,59.91
2018-09-02T19:13:07.968Z,60.04
2018-09-02T19:15:37.396Z,60.60
2018-09-02T19:18:06.850Z,60.54
2018-09-02T19:20:36.280Z,60.81
2018-09-02T19:23:05.767Z,60.92
2018-09-02T19:25:35.259Z,61.03
2018-09-02T19:28:04.667Z,61.84
2018-09-02T19:30:34.128Z,62.08
2018-09-02T19:33:03.572Z,62.27
2018-09-02T19:35:33.080Z,62.80
2018-09-02T19:38:02.505Z,62.91
2018-09-02T19:40:31.977Z,63.32
2018-09-02T19:43:01.525Z,62.83
2018-09-02T19:45:31.047Z,63.16
2018-09-02T19:48:00.554Z,63.24
2018-09-02T19:50:30.120Z,63.61
2018-09-02T19:52:59.531Z,63.71
2018-09-02T19:55:28.988Z,64.17
2018-09-02T19:57:58.477Z,64.28
2018-09-02T20:00:28.101Z,64.60
2018-09-02T20:02:57.506Z,64.47
2018-09-02T20:05:26.945Z,65.30
2018-09-02T20:07:56.413Z,65.25
2018-09-02T20:10:25.854Z,65.41
2018-09-02T20:12:55.445Z,65.15
2018-09-02T20:15:25.011Z,65.89
2018-09-02T20:17:54.406Z,65.53
2018-09-02T20:20:23.804Z,66.32
2018-09-02T20:22:53.381Z,66.64
2018-09-02T20:25:23.359Z,66.69
2018-09-02T20:27:52.825Z,66.10
2018-09-02T20:30:22.420Z,66.75
2018-09-02T20:32:51.855Z,67.03
2018-09-02T20:35:21.434Z,66.61
2018-09-02T20:37:51.069Z,67.13
2018-09-02T20:40:20.544Z,67.02
2018-09-02T20:42:49.996Z,67.31
2018-09-02T20:45:19.783Z,67.41
2018-09-02T20:47:49.188Z,66.90
2018-09-02T20:50:18.807Z,67.01
2018-09-02T20:52:48.408Z,67.27
2018-09-02T20:55:17.789Z,68.05
2018-09-02T20:57:47.300Z,67.29
2018-09-02T21:00:16.863Z,67.69
2018-09-02T21:02:46.414Z,67.77
2018-09-02T21:05:16.571Z,67.87
2018-09-02T21:07:46.717Z,68.16
2018-09-02T21:10:16.124Z,67.94
2018-09-02T21:12:45.704Z,68.14
2018-09-02T21:15:15.333Z,69.14
2018-09-02T21:17:44.979Z,68.53
2018-09-02T21:20:14.513Z,68.83
2018-09-02T21:22:44.128Z,68.94
2018-09-02T21:25:13.714Z,69.48
2018-09-02T21:27:43.221Z,69.29
2018-09-02T21:30:12.932Z,69.38
2018-09-02T21:32:42.330Z,69.01
2018-09-02T21:35:12.007Z,69.30
2018-09-02T21:37:41.545Z,69.29
2018-09-02T21:40:10.939Z,69.97
2018-09-02T21:42:40.337Z,69.58
2018-09-02T21:45:09.781Z,70.17
2018-09-02T21:47:39.185Z,69.92
2018-09-02T21:50:08.843Z,69.79
2018-09-02T21:52:38.305Z,69.87
2018-09-02T21:55:07.887Z,70.13
2018-09-02T21:57:37.303Z,69.76
2018-09-02T22:00:10.979Z,69.55
2018-09-02T22:02:40.638Z,69.82
2018-09-02T22:05:11.867Z,69.85
2018-09-02T22:07:41.998Z,70.31
2018-09-02T22:10:12.242Z,69.82
2018-09-02T22:12:41.684Z,70.22
2018-09-02T22:15:11.616Z,70.26
2018-09-02T22:17:41.038Z,69.82
2018-09-02T22:20:10.751Z,69.93
2018-09-02T22:22:40.148Z,69.49
2018-09-02T22:25:10.548Z,70.30
2018-09-02T22:27:39.994Z,69.62
2018-09-02T22:30:10.070Z,69.94
2018-09-02T22:32:39.695Z,70.20
2018-09-02T22:35:09.122Z,69.35
2018-09-02T22:37:38.564Z,69.79
2018-09-02T22:40:08.098Z,69.48
2018-09-02T22:42:37.652Z,69.13
2018-09-02T22:45:07.120Z,68.88
2018-09-02T22:47:36.492Z,68.75
2018-09-02T22:50:06.008Z,67.98
2018-09-02T22:52:35.461Z,67.83
2018-09-02T22:55:04.988Z,68.32
2018-09-02T22:57:34.375Z,67.68
2018-09-02T23:00:03.825Z,67.66
2018-09-02T23:02:33.242Z,67.45
2018-09-02T23:05:02.624Z,67.78
2018-09-02T23:07:32.103Z,67.54
2018-09-02T23:10:01.492Z,67.30
2018-09-02T23:12:31.357Z,67.77
2018-09-02T23:15:00.808Z,67.43
2018-09-02T23:17:30.223Z,67.18
2018-09-02T23:19:59.649Z,67.03
2018-09-02T23:22:29.036Z,66.98
2018-09-02T23:24:58.497Z,67.63
2018-09-02T23:27:27.891Z,67.25
2018-09-02T23:29:57.343Z,67.25
2018-09-02T23:32:26.827Z,67.75
2018-09-02T23:34:56.214Z,67.12
2018-09-02T23:37:25.636Z,67.09
2018-09-02T23:39:55.061Z,67.58
2018-09-02T23:42:24.603Z,67.67
2018-09-02T23:44:53.993Z,67.32
2018-09-02T23:47:23.507Z,67.94
2018-09-02T23:49:52.935Z,67.09
2018-09-02T23:52:22.358Z,67.83
2018-09-02T23:54:51.963Z,67.39
2018-09-02T23:57:21.370Z,67.60
2018-09-02T23:59:51.054Z,67.36
